sensor_id;sensor_type;location;lat;lon;timestamp;P1;durP1;ratioP1;P2;durP2;ratioP2
13083;SDS011;6608;48.790;9.198;2024-01-11T00:00:38;91.43;;;55.40;;
13083;SDS011;6608;48.790;9.198;2024-01-11T00:03:05;88.87;;;55.10;;
13083;SDS011;6608;48.790;9.198;2024-01-11T00:05:31;85.73;;;53.97;;
13083;SDS011;6608;48.790;9.198;2024-01-11T00:07:58;87.80;;;54.93;;
13083;SDS011;6608;48.790;9.198;2024-01-11T00:10:24;89.33;;;55.23;;
13083;SDS011;6608;48.790;9.198;2024-01-11T00:12:52;89.43;;;55.60;;
13083;SDS011;6608;48.790;9.198;2024-01-11T00:15:18;91.63;;;55.80;;
13083;SDS011;6608;48.790;9.198;2024-01-11T00:17:45;85.77;;;54.80;;
13083;SDS011;6608;48.790;9.198;2024-01-11T00:20:11;90.07;;;55.20;;
13083;SDS011;6608;48.790;9.198;2024-01-11T00:22:38;91.23;;;55.13;;
13083;SDS011;6608;48.790;9.198;2024-01-11T00:25:04;88.87;;;55.80;;
13083;SDS011;6608;48.790;9.198;2024-01-11T00:27:31;87.33;;;54.97;;
13083;SDS011;6608;48.790;9.198;2024-01-11T00:29:59;85.93;;;54.60;;
13083;SDS011;6608;48.790;9.198;2024-01-11T00:32:26;90.37;;;56.13;;
13083;SDS011;6608;48.790;9.198;2024-01-11T00:34:52;87.97;;;55.30;;
13083;SDS011;6608;48.790;9.198;2024-01-11T00:37:19;87.27;;;54.80;;
13083;SDS011;6608;48.790;9.198;2024-01-11T00:39:45;88.30;;;55.03;;
13083;SDS011;6608;48.790;9.198;2024-01-11T00:42:12;90.60;;;55.77;;
13083;SDS011;6608;48.790;9.198;2024-01-11T00:44:39;86.77;;;54.67;;
13083;SDS011;6608;48.790;9.198;2024-01-11T00:47:07;88.03;;;54.70;;
13083;SDS011;6608;48.790;9.198;2024-01-11T00:49:33;88.13;;;55.10;;
13083;SDS011;6608;48.790;9.198;2024-01-11T00:51:59;85.83;;;54.20;;
13083;SDS011;6608;48.790;9.198;2024-01-11T00:54:26;94.03;;;54.93;;
13083;SDS011;6608;48.790;9.198;2024-01-11T00:56:52;84.10;;;54.30;;
13083;SDS011;6608;48.790;9.198;2024-01-11T00:59:19;88.97;;;54.20;;
13083;SDS011;6608;48.790;9.198;2024-01-11T01:01:46;83.77;;;54.07;;
13083;SDS011;6608;48.790;9.198;2024-01-11T01:04:14;85.43;;;54.40;;
13083;SDS011;6608;48.790;9.198;2024-01-11T01:06:41;87.20;;;54.43;;
13083;SDS011;6608;48.790;9.198;2024-01-11T01:09:07;86.70;;;54.63;;
13083;SDS011;6608;48.790;9.198;2024-01-11T01:11:34;83.73;;;53.50;;
13083;SDS011;6608;48.790;9.198;2024-01-11T01:14:00;81.73;;;53.27;;
13083;SDS011;6608;48.790;9.198;2024-01-11T01:16:26;87.33;;;54.83;;
13083;SDS011;6608;48.790;9.198;2024-01-11T01:18:53;82.63;;;53.17;;
13083;SDS011;6608;48.790;9.198;2024-01-11T01:21:21;86.80;;;54.23;;
13083;SDS011;6608;48.790;9.198;2024-01-11T01:23:47;86.80;;;54.70;;
13083;SDS011;6608;48.790;9.198;2024-01-11T01:26:14;85.03;;;54.50;;
13083;SDS011;6608;48.790;9.198;2024-01-11T01:28:40;82.00;;;53.40;;
13083;SDS011;6608;48.790;9.198;2024-01-11T01:31:06;84.33;;;53.87;;
13083;SDS011;6608;48.790;9.198;2024-01-11T01:33:33;88.70;;;54.07;;
13083;SDS011;6608;48.790;9.198;2024-01-11T01:35:59;85.90;;;53.73;;
13083;SDS011;6608;48.790;9.198;2024-01-11T01:38:27;87.53;;;53.93;;
13083;SDS011;6608;48.790;9.198;2024-01-11T01:40:55;84.60;;;53.13;;
13083;SDS011;6608;48.790;9.198;2024-01-11T01:43:22;86.40;;;53.90;;
13083;SDS011;6608;48.790;9.198;2024-01-11T01:45:48;83.37;;;54.10;;
13083;SDS011;6608;48.790;9.198;2024-01-11T01:48:14;84.13;;;54.47;;
13083;SDS011;6608;48.790;9.198;2024-01-11T01:50:41;83.70;;;52.83;;
13083;SDS011;6608;48.790;9.198;2024-01-11T01:53:10;85.27;;;54.03;;
13083;SDS011;6608;48.790;9.198;2024-01-11T01:55:39;90.27;;;55.27;;
13083;SDS011;6608;48.790;9.198;2024-01-11T01:58:06;87.23;;;54.87;;
13083;SDS011;6608;48.790;9.198;2024-01-11T02:00:32;87.53;;;56.43;;
13083;SDS011;6608;48.790;9.198;2024-01-11T02:02:59;88.63;;;54.27;;
13083;SDS011;6608;48.790;9.198;2024-01-11T02:05:25;89.10;;;54.93;;
13083;SDS011;6608;48.790;9.198;2024-01-11T02:07:52;87.37;;;54.03;;
13083;SDS011;6608;48.790;9.198;2024-01-11T02:10:18;86.77;;;55.27;;
13083;SDS011;6608;48.790;9.198;2024-01-11T02:12:46;84.10;;;54.07;;
13083;SDS011;6608;48.790;9.198;2024-01-11T02:15:13;86.23;;;54.23;;
13083;SDS011;6608;48.790;9.198;2024-01-11T02:17:39;83.93;;;54.40;;
13083;SDS011;6608;48.790;9.198;2024-01-11T02:20:06;85.33;;;54.37;;
13083;SDS011;6608;48.790;9.198;2024-01-11T02:22:34;85.50;;;53.63;;
13083;SDS011;6608;48.790;9.198;2024-01-11T02:25:03;85.00;;;53.97;;
13083;SDS011;6608;48.790;9.198;2024-01-11T02:27:29;83.33;;;53.53;;
13083;SDS011;6608;48.790;9.198;2024-01-11T02:29:56;85.67;;;54.43;;
13083;SDS011;6608;48.790;9.198;2024-01-11T02:32:22;85.23;;;54.33;;
13083;SDS011;6608;48.790;9.198;2024-01-11T02:34:49;83.83;;;53.43;;
13083;SDS011;6608;48.790;9.198;2024-01-11T02:37:15;84.63;;;53.57;;
13083;SDS011;6608;48.790;9.198;2024-01-11T02:39:42;84.20;;;53.83;;
13083;SDS011;6608;48.790;9.198;2024-01-11T02:42:10;90.03;;;55.63;;
13083;SDS011;6608;48.790;9.198;2024-01-11T02:44:36;87.07;;;53.87;;
13083;SDS011;6608;48.790;9.198;2024-01-11T02:47:03;85.27;;;54.90;;
13083;SDS011;6608;48.790;9.198;2024-01-11T02:49:29;88.07;;;54.73;;
13083;SDS011;6608;48.790;9.198;2024-01-11T02:51:55;83.67;;;53.70;;
13083;SDS011;6608;48.790;9.198;2024-01-11T02:54:22;85.50;;;53.63;;
13083;SDS011;6608;48.790;9.198;2024-01-11T02:56:48;83.27;;;53.73;;
13083;SDS011;6608;48.790;9.198;2024-01-11T02:59:16;84.30;;;53.77;;
13083;SDS011;6608;48.790;9.198;2024-01-11T03:01:43;87.17;;;55.07;;
13083;SDS011;6608;48.790;9.198;2024-01-11T03:04:09;83.73;;;54.57;;
13083;SDS011;6608;48.790;9.198;2024-01-11T03:06:36;84.93;;;54.23;;
13083;SDS011;6608;48.790;9.198;2024-01-11T03:09:02;83.00;;;54.27;;
13083;SDS011;6608;48.790;9.198;2024-01-11T03:11:28;84.83;;;54.13;;
13083;SDS011;6608;48.790;9.198;2024-01-11T03:13:55;80.57;;;53.50;;
13083;SDS011;6608;48.790;9.198;2024-01-11T03:16:23;84.60;;;54.60;;
13083;SDS011;6608;48.790;9.198;2024-01-11T03:18:49;88.87;;;55.07;;
13083;SDS011;6608;48.790;9.198;2024-01-11T03:21:16;88.50;;;53.57;;
13083;SDS011;6608;48.790;9.198;2024-01-11T03:23:43;85.10;;;54.00;;
13083;SDS011;6608;48.790;9.198;2024-01-11T03:26:12;86.73;;;53.53;;
13083;SDS011;6608;48.790;9.198;2024-01-11T03:28:38;84.97;;;53.97;;
13083;SDS011;6608;48.790;9.198;2024-01-11T03:31:05;83.17;;;53.77;;
13083;SDS011;6608;48.790;9.198;2024-01-11T03:33:33;80.90;;;53.70;;
13083;SDS011;6608;48.790;9.198;2024-01-11T03:35:59;81.87;;;52.73;;
13083;SDS011;6608;48.790;9.198;2024-01-11T03:38:26;78.30;;;52.00;;
13083;SDS011;6608;48.790;9.198;2024-01-11T03:40:52;82.30;;;52.77;;
13083;SDS011;6608;48.790;9.198;2024-01-11T03:43:19;81.20;;;53.40;;
13083;SDS011;6608;48.790;9.198;2024-01-11T03:45:45;84.50;;;54.37;;
13083;SDS011;6608;48.790;9.198;2024-01-11T03:48:12;79.60;;;53.40;;
13083;SDS011;6608;48.790;9.198;2024-01-11T03:50:39;85.23;;;53.83;;
13083;SDS011;6608;48.790;9.198;2024-01-11T03:53:06;79.43;;;52.73;;
13083;SDS011;6608;48.790;9.198;2024-01-11T03:55:33;87.40;;;54.00;;
13083;SDS011;6608;48.790;9.198;2024-01-11T03:57:59;80.60;;;54.27;;
13083;SDS011;6608;48.790;9.198;2024-01-11T04:00:25;86.13;;;53.27;;
13083;SDS011;6608;48.790;9.198;2024-01-11T04:02:52;84.90;;;52.77;;
13083;SDS011;6608;48.790;9.198;2024-01-11T04:05:18;84.30;;;53.27;;
13083;SDS011;6608;48.790;9.198;2024-01-11T04:07:46;81.10;;;53.97;;
13083;SDS011;6608;48.790;9.198;2024-01-11T04:10:14;80.73;;;52.30;;
13083;SDS011;6608;48.790;9.198;2024-01-11T04:12:41;80.63;;;52.80;;
13083;SDS011;6608;48.790;9.198;2024-01-11T04:15:08;83.43;;;54.60;;
13083;SDS011;6608;48.790;9.198;2024-01-11T04:17:35;87.67;;;55.37;;
13083;SDS011;6608;48.790;9.198;2024-01-11T04:20:01;85.90;;;54.63;;
13083;SDS011;6608;48.790;9.198;2024-01-11T04:22:28;84.77;;;54.57;;
13083;SDS011;6608;48.790;9.198;2024-01-11T04:24:56;85.80;;;54.47;;
13083;SDS011;6608;48.790;9.198;2024-01-11T04:27:22;78.60;;;51.97;;
13083;SDS011;6608;48.790;9.198;2024-01-11T04:29:48;80.40;;;52.20;;
13083;SDS011;6608;48.790;9.198;2024-01-11T04:32:15;79.13;;;52.33;;
13083;SDS011;6608;48.790;9.198;2024-01-11T04:34:41;79.77;;;52.87;;
13083;SDS011;6608;48.790;9.198;2024-01-11T04:37:08;83.37;;;54.03;;
13083;SDS011;6608;48.790;9.198;2024-01-11T04:39:34;82.60;;;52.93;;
13083;SDS011;6608;48.790;9.198;2024-01-11T04:42:02;86.60;;;54.67;;
13083;SDS011;6608;48.790;9.198;2024-01-11T04:44:29;83.00;;;53.13;;
13083;SDS011;6608;48.790;9.198;2024-01-11T04:46:55;80.13;;;52.67;;
13083;SDS011;6608;48.790;9.198;2024-01-11T04:49:21;84.47;;;53.80;;
13083;SDS011;6608;48.790;9.198;2024-01-11T04:51:48;83.30;;;53.47;;
13083;SDS011;6608;48.790;9.198;2024-01-11T04:54:14;77.67;;;51.80;;
13083;SDS011;6608;48.790;9.198;2024-01-11T04:56:41;78.27;;;53.10;;
13083;SDS011;6608;48.790;9.198;2024-01-11T04:59:09;76.97;;;52.83;;
13083;SDS011;6608;48.790;9.198;2024-01-11T05:01:35;79.70;;;53.50;;
13083;SDS011;6608;48.790;9.198;2024-01-11T05:04:02;77.57;;;52.63;;
13083;SDS011;6608;48.790;9.198;2024-01-11T05:06:28;81.53;;;51.80;;
13083;SDS011;6608;48.790;9.198;2024-01-11T05:08:55;80.67;;;52.43;;
13083;SDS011;6608;48.790;9.198;2024-01-11T05:11:22;79.17;;;52.27;;
13083;SDS011;6608;48.790;9.198;2024-01-11T05:13:49;86.87;;;52.97;;
13083;SDS011;6608;48.790;9.198;2024-01-11T05:16:19;81.73;;;53.47;;
13083;SDS011;6608;48.790;9.198;2024-01-11T05:18:45;76.03;;;51.20;;
13083;SDS011;6608;48.790;9.198;2024-01-11T05:21:12;76.37;;;51.77;;
13083;SDS011;6608;48.790;9.198;2024-01-11T05:23:39;88.10;;;54.20;;
13083;SDS011;6608;48.790;9.198;2024-01-11T05:26:06;81.67;;;53.07;;
13083;SDS011;6608;48.790;9.198;2024-01-11T05:28:32;84.70;;;55.13;;
13083;SDS011;6608;48.790;9.198;2024-01-11T05:30:59;83.10;;;54.30;;
13083;SDS011;6608;48.790;9.198;2024-01-11T05:33:26;80.70;;;52.93;;
13083;SDS011;6608;48.790;9.198;2024-01-11T05:35:53;81.00;;;53.47;;
13083;SDS011;6608;48.790;9.198;2024-01-11T05:38:19;82.63;;;53.97;;
13083;SDS011;6608;48.790;9.198;2024-01-11T05:40:46;75.77;;;52.03;;
13083;SDS011;6608;48.790;9.198;2024-01-11T05:43:12;84.27;;;55.07;;
13083;SDS011;6608;48.790;9.198;2024-01-11T05:45:38;81.97;;;53.37;;
13083;SDS011;6608;48.790;9.198;2024-01-11T05:48:05;77.43;;;52.73;;
13083;SDS011;6608;48.790;9.198;2024-01-11T05:50:33;80.17;;;53.77;;
13083;SDS011;6608;48.790;9.198;2024-01-11T05:53:00;79.80;;;52.63;;
13083;SDS011;6608;48.790;9.198;2024-01-11T05:55:26;79.63;;;53.67;;
13083;SDS011;6608;48.790;9.198;2024-01-11T05:57:53;83.93;;;54.37;;
13083;SDS011;6608;48.790;9.198;2024-01-11T06:00:19;80.00;;;52.80;;
13083;SDS011;6608;48.790;9.198;2024-01-11T06:02:46;86.03;;;54.00;;
13083;SDS011;6608;48.790;9.198;2024-01-11T06:05:12;78.10;;;53.20;;
13083;SDS011;6608;48.790;9.198;2024-01-11T06:07:41;80.77;;;53.43;;
13083;SDS011;6608;48.790;9.198;2024-01-11T06:10:07;81.03;;;53.30;;
13083;SDS011;6608;48.790;9.198;2024-01-11T06:12:34;80.57;;;53.50;;
13083;SDS011;6608;48.790;9.198;2024-01-11T06:15:00;82.80;;;52.63;;
13083;SDS011;6608;48.790;9.198;2024-01-11T06:17:27;84.87;;;54.17;;
13083;SDS011;6608;48.790;9.198;2024-01-11T06:19:55;79.83;;;53.50;;
13083;SDS011;6608;48.790;9.198;2024-01-11T06:22:21;82.00;;;53.27;;
13083;SDS011;6608;48.790;9.198;2024-01-11T06:24:49;82.73;;;52.93;;
13083;SDS011;6608;48.790;9.198;2024-01-11T06:27:15;82.70;;;54.03;;
13083;SDS011;6608;48.790;9.198;2024-01-11T06:29:42;82.20;;;52.90;;
13083;SDS011;6608;48.790;9.198;2024-01-11T06:32:07;96.37;;;59.50;;
13083;SDS011;6608;48.790;9.198;2024-01-11T06:34:34;79.10;;;53.57;;
13083;SDS011;6608;48.790;9.198;2024-01-11T06:37:01;82.03;;;53.63;;
13083;SDS011;6608;48.790;9.198;2024-01-11T06:39:28;81.07;;;54.20;;
13083;SDS011;6608;48.790;9.198;2024-01-11T06:41:56;78.57;;;53.80;;
13083;SDS011;6608;48.790;9.198;2024-01-11T06:44:22;79.73;;;52.80;;
13083;SDS011;6608;48.790;9.198;2024-01-11T06:46:49;83.47;;;54.40;;
13083;SDS011;6608;48.790;9.198;2024-01-11T06:49:16;84.87;;;54.33;;
13083;SDS011;6608;48.790;9.198;2024-01-11T06:51:42;82.03;;;54.33;;
13083;SDS011;6608;48.790;9.198;2024-01-11T06:54:09;81.30;;;53.03;;
13083;SDS011;6608;48.790;9.198;2024-01-11T06:56:35;81.00;;;53.70;;
13083;SDS011;6608;48.790;9.198;2024-01-11T06:59:03;80.93;;;54.03;;
13083;SDS011;6608;48.790;9.198;2024-01-11T07:01:29;85.80;;;53.10;;
13083;SDS011;6608;48.790;9.198;2024-01-11T07:03:56;80.30;;;53.63;;
13083;SDS011;6608;48.790;9.198;2024-01-11T07:06:22;82.97;;;52.50;;
13083;SDS011;6608;48.790;9.198;2024-01-11T07:08:49;84.80;;;54.77;;
13083;SDS011;6608;48.790;9.198;2024-01-11T07:11:15;91.07;;;56.97;;
13083;SDS011;6608;48.790;9.198;2024-01-11T07:13:42;83.97;;;53.60;;
13083;SDS011;6608;48.790;9.198;2024-01-11T07:16:10;81.27;;;54.70;;
13083;SDS011;6608;48.790;9.198;2024-01-11T07:18:36;83.63;;;53.23;;
13083;SDS011;6608;48.790;9.198;2024-01-11T07:21:03;83.13;;;54.40;;
13083;SDS011;6608;48.790;9.198;2024-01-11T07:23:29;87.97;;;56.10;;
13083;SDS011;6608;48.790;9.198;2024-01-11T07:25:56;87.87;;;55.50;;
13083;SDS011;6608;48.790;9.198;2024-01-11T07:28:23;85.03;;;54.57;;
13083;SDS011;6608;48.790;9.198;2024-01-11T07:30:50;78.40;;;52.37;;
13083;SDS011;6608;48.790;9.198;2024-01-11T07:33:18;82.63;;;55.13;;
13083;SDS011;6608;48.790;9.198;2024-01-11T07:35:45;85.50;;;54.27;;
13083;SDS011;6608;48.790;9.198;2024-01-11T07:38:11;93.37;;;58.17;;
13083;SDS011;6608;48.790;9.198;2024-01-11T07:40:38;87.23;;;56.53;;
13083;SDS011;6608;48.790;9.198;2024-01-11T07:43:04;81.50;;;54.77;;
13083;SDS011;6608;48.790;9.198;2024-01-11T07:45:31;84.83;;;54.17;;
13083;SDS011;6608;48.790;9.198;2024-01-11T07:47:57;85.10;;;55.13;;
13083;SDS011;6608;48.790;9.198;2024-01-11T07:50:26;82.87;;;53.80;;
13083;SDS011;6608;48.790;9.198;2024-01-11T07:52:52;85.20;;;54.53;;
13083;SDS011;6608;48.790;9.198;2024-01-11T07:55:20;79.67;;;53.20;;
13083;SDS011;6608;48.790;9.198;2024-01-11T07:57:49;82.93;;;54.70;;
13083;SDS011;6608;48.790;9.198;2024-01-11T08:00:15;83.20;;;54.77;;
13083;SDS011;6608;48.790;9.198;2024-01-11T08:02:42;80.97;;;53.90;;
13083;SDS011;6608;48.790;9.198;2024-01-11T08:05:08;88.87;;;55.70;;
13083;SDS011;6608;48.790;9.198;2024-01-11T08:07:36;84.47;;;53.70;;
13083;SDS011;6608;48.790;9.198;2024-01-11T08:10:03;90.53;;;55.23;;
13083;SDS011;6608;48.790;9.198;2024-01-11T08:12:30;76.37;;;52.60;;
13083;SDS011;6608;48.790;9.198;2024-01-11T08:14:56;85.73;;;55.97;;
13083;SDS011;6608;48.790;9.198;2024-01-11T08:17:32;87.83;;;53.67;;
13083;SDS011;6608;48.790;9.198;2024-01-11T08:19:58;84.20;;;54.93;;
13083;SDS011;6608;48.790;9.198;2024-01-11T08:22:25;87.37;;;54.97;;
13083;SDS011;6608;48.790;9.198;2024-01-11T08:24:54;84.67;;;55.10;;
13083;SDS011;6608;48.790;9.198;2024-01-11T08:27:22;86.00;;;54.13;;
13083;SDS011;6608;48.790;9.198;2024-01-11T08:29:48;86.53;;;55.77;;
13083;SDS011;6608;48.790;9.198;2024-01-11T08:32:15;87.33;;;54.43;;
13083;SDS011;6608;48.790;9.198;2024-01-11T08:34:42;85.47;;;54.07;;
13083;SDS011;6608;48.790;9.198;2024-01-11T08:37:08;86.77;;;54.80;;
13083;SDS011;6608;48.790;9.198;2024-01-11T08:39:34;94.47;;;56.67;;
13083;SDS011;6608;48.790;9.198;2024-01-11T08:42:03;85.97;;;54.87;;
13083;SDS011;6608;48.790;9.198;2024-01-11T08:44:29;87.87;;;54.80;;
13083;SDS011;6608;48.790;9.198;2024-01-11T08:46:56;93.03;;;56.90;;
13083;SDS011;6608;48.790;9.198;2024-01-11T08:49:24;88.03;;;55.23;;
13083;SDS011;6608;48.790;9.198;2024-01-11T08:51:50;88.80;;;56.20;;
13083;SDS011;6608;48.790;9.198;2024-01-11T08:54:17;85.83;;;55.73;;
13083;SDS011;6608;48.790;9.198;2024-01-11T08:56:45;88.07;;;55.60;;
13083;SDS011;6608;48.790;9.198;2024-01-11T08:59:14;85.77;;;55.07;;
13083;SDS011;6608;48.790;9.198;2024-01-11T09:01:40;92.67;;;57.17;;
13083;SDS011;6608;48.790;9.198;2024-01-11T09:04:07;89.30;;;56.13;;
13083;SDS011;6608;48.790;9.198;2024-01-11T09:06:34;103.20;;;57.93;;
13083;SDS011;6608;48.790;9.198;2024-01-11T09:09:00;99.47;;;60.40;;
13083;SDS011;6608;48.790;9.198;2024-01-11T09:12:04;96.10;;;57.77;;
13083;SDS011;6608;48.790;9.198;2024-01-11T09:14:30;91.13;;;54.67;;
13083;SDS011;6608;48.790;9.198;2024-01-11T09:16:56;99.73;;;58.87;;
13083;SDS011;6608;48.790;9.198;2024-01-11T09:19:29;94.60;;;57.00;;
13083;SDS011;6608;48.790;9.198;2024-01-11T09:21:55;98.50;;;56.97;;
13083;SDS011;6608;48.790;9.198;2024-01-11T09:24:22;103.40;;;59.57;;
13083;SDS011;6608;48.790;9.198;2024-01-11T09:26:50;119.37;;;67.37;;
13083;SDS011;6608;48.790;9.198;2024-01-11T09:29:17;103.97;;;60.33;;
13083;SDS011;6608;48.790;9.198;2024-01-11T09:31:45;113.53;;;61.93;;
13083;SDS011;6608;48.790;9.198;2024-01-11T09:34:12;109.03;;;61.07;;
13083;SDS011;6608;48.790;9.198;2024-01-11T09:36:40;115.53;;;63.20;;
13083;SDS011;6608;48.790;9.198;2024-01-11T09:39:10;115.17;;;62.80;;
13083;SDS011;6608;48.790;9.198;2024-01-11T09:44:22;117.10;;;64.67;;
13083;SDS011;6608;48.790;9.198;2024-01-11T09:46:51;115.57;;;63.50;;
13083;SDS011;6608;48.790;9.198;2024-01-11T09:49:20;113.77;;;62.87;;
13083;SDS011;6608;48.790;9.198;2024-01-11T09:51:48;119.83;;;65.07;;
13083;SDS011;6608;48.790;9.198;2024-01-11T09:54:15;114.33;;;62.37;;
13083;SDS011;6608;48.790;9.198;2024-01-11T09:56:42;120.13;;;63.17;;
13083;SDS011;6608;48.790;9.198;2024-01-11T09:59:14;119.70;;;64.17;;
13083;SDS011;6608;48.790;9.198;2024-01-11T10:01:42;120.07;;;63.70;;
13083;SDS011;6608;48.790;9.198;2024-01-11T10:04:15;123.47;;;63.87;;
13083;SDS011;6608;48.790;9.198;2024-01-11T10:06:41;121.23;;;64.27;;
13083;SDS011;6608;48.790;9.198;2024-01-11T10:09:08;116.27;;;63.60;;
13083;SDS011;6608;48.790;9.198;2024-01-11T10:11:37;119.97;;;65.07;;
13083;SDS011;6608;48.790;9.198;2024-01-11T10:14:05;127.63;;;66.40;;
13083;SDS011;6608;48.790;9.198;2024-01-11T10:16:36;121.50;;;65.40;;
13083;SDS011;6608;48.790;9.198;2024-01-11T10:19:02;121.43;;;64.30;;
13083;SDS011;6608;48.790;9.198;2024-01-11T10:24:11;141.17;;;75.57;;
13083;SDS011;6608;48.790;9.198;2024-01-11T10:26:43;129.47;;;67.90;;
13083;SDS011;6608;48.790;9.198;2024-01-11T10:29:11;130.47;;;67.03;;
13083;SDS011;6608;48.790;9.198;2024-01-11T10:31:38;144.17;;;73.77;;
13083;SDS011;6608;48.790;9.198;2024-01-11T10:34:04;130.87;;;67.70;;
13083;SDS011;6608;48.790;9.198;2024-01-11T10:36:31;136.13;;;69.60;;
13083;SDS011;6608;48.790;9.198;2024-01-11T10:38:58;133.90;;;69.23;;
13083;SDS011;6608;48.790;9.198;2024-01-11T10:41:30;139.97;;;71.30;;
13083;SDS011;6608;48.790;9.198;2024-01-11T10:43:58;139.43;;;70.93;;
13083;SDS011;6608;48.790;9.198;2024-01-11T10:46:26;138.93;;;70.10;;
13083;SDS011;6608;48.790;9.198;2024-01-11T10:48:53;144.27;;;73.57;;
13083;SDS011;6608;48.790;9.198;2024-01-11T10:51:22;141.33;;;72.37;;
13083;SDS011;6608;48.790;9.198;2024-01-11T10:53:50;144.43;;;72.93;;
13083;SDS011;6608;48.790;9.198;2024-01-11T10:56:18;143.07;;;72.07;;
13083;SDS011;6608;48.790;9.198;2024-01-11T10:58:47;142.93;;;72.50;;
13083;SDS011;6608;48.790;9.198;2024-01-11T11:01:18;145.73;;;73.37;;
13083;SDS011;6608;48.790;9.198;2024-01-11T11:03:49;146.63;;;71.00;;
13083;SDS011;6608;48.790;9.198;2024-01-11T11:06:16;157.27;;;73.73;;
13083;SDS011;6608;48.790;9.198;2024-01-11T11:08:44;139.57;;;71.13;;
13083;SDS011;6608;48.790;9.198;2024-01-11T11:11:12;140.30;;;71.17;;
13083;SDS011;6608;48.790;9.198;2024-01-11T11:13:39;138.60;;;70.67;;
13083;SDS011;6608;48.790;9.198;2024-01-11T11:16:08;155.73;;;80.80;;
13083;SDS011;6608;48.790;9.198;2024-01-11T11:18:34;145.10;;;74.83;;
13083;SDS011;6608;48.790;9.198;2024-01-11T11:21:06;144.23;;;72.93;;
13083;SDS011;6608;48.790;9.198;2024-01-11T11:23:33;146.47;;;74.07;;
13083;SDS011;6608;48.790;9.198;2024-01-11T11:25:59;144.70;;;73.00;;
13083;SDS011;6608;48.790;9.198;2024-01-11T11:28:25;141.80;;;72.77;;
13083;SDS011;6608;48.790;9.198;2024-01-11T11:30:52;144.17;;;73.43;;
13083;SDS011;6608;48.790;9.198;2024-01-11T11:33:23;138.50;;;71.00;;
13083;SDS011;6608;48.790;9.198;2024-01-11T11:35:51;144.60;;;73.93;;
13083;SDS011;6608;48.790;9.198;2024-01-11T11:38:18;137.90;;;71.40;;
13083;SDS011;6608;48.790;9.198;2024-01-11T11:40:46;137.57;;;69.17;;
13083;SDS011;6608;48.790;9.198;2024-01-11T11:43:15;137.63;;;69.77;;
13083;SDS011;6608;48.790;9.198;2024-01-11T11:45:41;141.40;;;71.43;;
13083;SDS011;6608;48.790;9.198;2024-01-11T11:51:02;139.53;;;72.47;;
13083;SDS011;6608;48.790;9.198;2024-01-11T11:53:30;138.57;;;72.40;;
13083;SDS011;6608;48.790;9.198;2024-01-11T11:55:59;143.37;;;74.30;;
13083;SDS011;6608;48.790;9.198;2024-01-11T11:58:25;139.43;;;72.77;;
13083;SDS011;6608;48.790;9.198;2024-01-11T12:00:53;137.53;;;73.37;;
13083;SDS011;6608;48.790;9.198;2024-01-11T12:03:20;144.27;;;75.47;;
13083;SDS011;6608;48.790;9.198;2024-01-11T12:05:50;141.17;;;74.20;;
13083;SDS011;6608;48.790;9.198;2024-01-11T12:08:18;144.83;;;74.17;;
13083;SDS011;6608;48.790;9.198;2024-01-11T12:10:44;145.47;;;74.23;;
13083;SDS011;6608;48.790;9.198;2024-01-11T12:13:11;141.77;;;74.00;;
13083;SDS011;6608;48.790;9.198;2024-01-11T12:15:38;142.43;;;74.27;;
13083;SDS011;6608;48.790;9.198;2024-01-11T12:18:04;145.07;;;75.60;;
13083;SDS011;6608;48.790;9.198;2024-01-11T12:20:32;145.13;;;73.60;;
13083;SDS011;6608;48.790;9.198;2024-01-11T12:22:58;149.10;;;76.10;;
13083;SDS011;6608;48.790;9.198;2024-01-11T12:25:28;151.67;;;77.50;;
13083;SDS011;6608;48.790;9.198;2024-01-11T12:27:55;145.47;;;75.13;;
13083;SDS011;6608;48.790;9.198;2024-01-11T12:30:22;164.23;;;81.90;;
13083;SDS011;6608;48.790;9.198;2024-01-11T12:32:48;148.80;;;75.53;;
13083;SDS011;6608;48.790;9.198;2024-01-11T12:35:15;145.50;;;73.93;;
13083;SDS011;6608;48.790;9.198;2024-01-11T12:37:51;148.00;;;75.67;;
13083;SDS011;6608;48.790;9.198;2024-01-11T12:40:18;158.97;;;82.30;;
13083;SDS011;6608;48.790;9.198;2024-01-11T12:42:46;144.63;;;75.47;;
13083;SDS011;6608;48.790;9.198;2024-01-11T12:45:14;146.93;;;75.07;;
13083;SDS011;6608;48.790;9.198;2024-01-11T12:47:41;148.70;;;75.87;;
13083;SDS011;6608;48.790;9.198;2024-01-11T12:50:08;158.20;;;83.20;;
13083;SDS011;6608;48.790;9.198;2024-01-11T12:52:38;149.63;;;74.87;;
13083;SDS011;6608;48.790;9.198;2024-01-11T12:55:06;150.67;;;76.03;;
13083;SDS011;6608;48.790;9.198;2024-01-11T13:45:28;143.90;;;72.80;;
13083;SDS011;6608;48.790;9.198;2024-01-11T13:47:54;142.40;;;73.67;;
13083;SDS011;6608;48.790;9.198;2024-01-11T13:50:21;142.10;;;73.00;;
13083;SDS011;6608;48.790;9.198;2024-01-11T13:52:49;146.70;;;73.07;;
13083;SDS011;6608;48.790;9.198;2024-01-11T13:55:16;142.87;;;74.50;;
13083;SDS011;6608;48.790;9.198;2024-01-11T13:57:46;138.27;;;71.23;;
13083;SDS011;6608;48.790;9.198;2024-01-11T14:00:13;137.13;;;72.77;;
13083;SDS011;6608;48.790;9.198;2024-01-11T14:02:49;136.10;;;71.40;;
13083;SDS011;6608;48.790;9.198;2024-01-11T14:05:16;154.23;;;82.00;;
13083;SDS011;6608;48.790;9.198;2024-01-11T14:07:43;144.73;;;72.33;;
13083;SDS011;6608;48.790;9.198;2024-01-11T14:10:11;139.57;;;74.10;;
13083;SDS011;6608;48.790;9.198;2024-01-11T14:12:38;138.90;;;71.53;;
13083;SDS011;6608;48.790;9.198;2024-01-11T14:15:05;139.90;;;71.47;;
13083;SDS011;6608;48.790;9.198;2024-01-11T14:17:32;136.47;;;70.30;;
13083;SDS011;6608;48.790;9.198;2024-01-11T14:20:00;136.23;;;71.53;;
13083;SDS011;6608;48.790;9.198;2024-01-11T14:22:28;139.83;;;70.43;;
13083;SDS011;6608;48.790;9.198;2024-01-11T14:25:12;137.73;;;70.27;;
13083;SDS011;6608;48.790;9.198;2024-01-11T14:27:39;136.30;;;71.03;;
13083;SDS011;6608;48.790;9.198;2024-01-11T14:30:06;135.93;;;70.00;;
13083;SDS011;6608;48.790;9.198;2024-01-11T14:32:34;133.93;;;69.67;;
13083;SDS011;6608;48.790;9.198;2024-01-11T14:35:02;131.73;;;67.77;;
13083;SDS011;6608;48.790;9.198;2024-01-11T14:37:29;131.23;;;68.07;;
13083;SDS011;6608;48.790;9.198;2024-01-11T14:39:56;130.57;;;67.20;;
13083;SDS011;6608;48.790;9.198;2024-01-11T14:42:23;135.13;;;70.70;;
13083;SDS011;6608;48.790;9.198;2024-01-11T14:44:49;133.37;;;67.93;;
13083;SDS011;6608;48.790;9.198;2024-01-11T14:47:16;127.13;;;67.40;;
13083;SDS011;6608;48.790;9.198;2024-01-11T14:49:42;125.40;;;66.87;;
13083;SDS011;6608;48.790;9.198;2024-01-11T14:52:10;128.80;;;66.67;;
13083;SDS011;6608;48.790;9.198;2024-01-11T14:54:36;125.50;;;66.50;;
13083;SDS011;6608;48.790;9.198;2024-01-11T14:57:03;125.57;;;65.30;;
13083;SDS011;6608;48.790;9.198;2024-01-11T14:59:30;122.10;;;65.43;;
13083;SDS011;6608;48.790;9.198;2024-01-11T15:01:57;129.33;;;66.77;;
13083;SDS011;6608;48.790;9.198;2024-01-11T15:04:24;121.33;;;64.33;;
13083;SDS011;6608;48.790;9.198;2024-01-11T15:06:51;146.90;;;76.30;;
13083;SDS011;6608;48.790;9.198;2024-01-11T15:09:19;121.53;;;66.27;;
13083;SDS011;6608;48.790;9.198;2024-01-11T15:11:45;125.90;;;67.77;;
13083;SDS011;6608;48.790;9.198;2024-01-11T15:14:12;122.17;;;64.80;;
13083;SDS011;6608;48.790;9.198;2024-01-11T15:16:38;128.57;;;65.63;;
13083;SDS011;6608;48.790;9.198;2024-01-11T15:19:05;126.77;;;65.40;;
13083;SDS011;6608;48.790;9.198;2024-01-11T15:21:32;117.47;;;65.07;;
13083;SDS011;6608;48.790;9.198;2024-01-11T15:23:59;119.23;;;64.73;;
13083;SDS011;6608;48.790;9.198;2024-01-11T15:26:27;124.00;;;63.47;;